sensor_id;sensor_type;location;lat;lon;timestamp;P1;durP1;ratioP1;P2;durP2;ratioP2
28772;SDS011;15925;51.222;5.678;2023-09-07T00:00:12;4.82;;;2.20;;
28772;SDS011;15925;51.222;5.678;2023-09-07T00:02:39;5.97;;;2.40;;
28772;SDS011;15925;51.222;5.678;2023-09-07T00:05:08;4.00;;;2.47;;
28772;SDS011;15925;51.222;5.678;2023-09-07T00:07:35;8.32;;;2.75;;
28772;SDS011;15925;51.222;5.678;2023-09-07T00:10:01;12.80;;;2.88;;
28772;SDS011;15925;51.222;5.678;2023-09-07T00:12:28;4.70;;;2.45;;
28772;SDS011;15925;51.222;5.678;2023-09-07T00:14:54;5.32;;;2.55;;
28772;SDS011;15925;51.222;5.678;2023-09-07T00:17:20;4.43;;;2.88;;
28772;SDS011;15925;51.222;5.678;2023-09-07T00:19:46;5.90;;;2.50;;
28772;SDS011;15925;51.222;5.678;2023-09-07T00:22:16;8.88;;;2.63;;
28772;SDS011;15925;51.222;5.678;2023-09-07T00:27:09;4.88;;;2.30;;
28772;SDS011;15925;51.222;5.678;2023-09-07T00:29:37;2.92;;;1.73;;
28772;SDS011;15925;51.222;5.678;2023-09-07T00:34:29;6.53;;;2.10;;
28772;SDS011;15925;51.222;5.678;2023-09-07T00:36:56;3.45;;;2.03;;
28772;SDS011;15925;51.222;5.678;2023-09-07T00:41:49;7.93;;;2.08;;
28772;SDS011;15925;51.222;5.678;2023-09-07T00:44:15;8.07;;;2.75;;
28772;SDS011;15925;51.222;5.678;2023-09-07T00:46:41;6.83;;;2.70;;
28772;SDS011;15925;51.222;5.678;2023-09-07T00:49:10;4.07;;;1.92;;
28772;SDS011;15925;51.222;5.678;2023-09-07T00:51:37;5.00;;;1.42;;
28772;SDS011;15925;51.222;5.678;2023-09-07T00:54:03;4.57;;;2.75;;
28772;SDS011;15925;51.222;5.678;2023-09-07T00:56:28;6.50;;;3.67;;
28772;SDS011;15925;51.222;5.678;2023-09-07T00:58:55;5.47;;;2.78;;
28772;SDS011;15925;51.222;5.678;2023-09-07T01:01:24;4.40;;;2.85;;
28772;SDS011;15925;51.222;5.678;2023-09-07T01:03:51;6.47;;;2.85;;
28772;SDS011;15925;51.222;5.678;2023-09-07T01:06:22;3.53;;;1.70;;
28772;SDS011;15925;51.222;5.678;2023-09-07T01:08:55;6.63;;;3.22;;
28772;SDS011;15925;51.222;5.678;2023-09-07T01:11:25;6.38;;;2.50;;
28772;SDS011;15925;51.222;5.678;2023-09-07T01:13:52;6.60;;;2.80;;
28772;SDS011;15925;51.222;5.678;2023-09-07T01:16:21;7.25;;;2.85;;
28772;SDS011;15925;51.222;5.678;2023-09-07T01:18:49;8.50;;;4.13;;
28772;SDS011;15925;51.222;5.678;2023-09-07T01:21:15;10.52;;;2.65;;
28772;SDS011;15925;51.222;5.678;2023-09-07T01:23:43;8.15;;;3.85;;
28772;SDS011;15925;51.222;5.678;2023-09-07T01:26:10;10.63;;;4.20;;
28772;SDS011;15925;51.222;5.678;2023-09-07T01:28:36;8.52;;;4.53;;
28772;SDS011;15925;51.222;5.678;2023-09-07T01:31:03;7.63;;;4.70;;
28772;SDS011;15925;51.222;5.678;2023-09-07T01:33:29;19.20;;;4.10;;
28772;SDS011;15925;51.222;5.678;2023-09-07T01:35:55;6.30;;;3.40;;
28772;SDS011;15925;51.222;5.678;2023-09-07T01:38:21;5.57;;;3.25;;
28772;SDS011;15925;51.222;5.678;2023-09-07T01:40:47;4.07;;;2.63;;
28772;SDS011;15925;51.222;5.678;2023-09-07T01:43:13;30.47;;;5.13;;
28772;SDS011;15925;51.222;5.678;2023-09-07T01:45:39;12.43;;;5.10;;
28772;SDS011;15925;51.222;5.678;2023-09-07T01:48:14;9.85;;;5.18;;
28772;SDS011;15925;51.222;5.678;2023-09-07T01:50:41;10.23;;;3.88;;
28772;SDS011;15925;51.222;5.678;2023-09-07T01:53:06;11.80;;;4.57;;
28772;SDS011;15925;51.222;5.678;2023-09-07T01:55:32;10.87;;;4.27;;
28772;SDS011;15925;51.222;5.678;2023-09-07T01:57:59;6.18;;;3.10;;
28772;SDS011;15925;51.222;5.678;2023-09-07T02:00:25;7.30;;;3.95;;
28772;SDS011;15925;51.222;5.678;2023-09-07T02:02:51;18.60;;;4.32;;
28772;SDS011;15925;51.222;5.678;2023-09-07T02:05:17;8.63;;;3.97;;
28772;SDS011;15925;51.222;5.678;2023-09-07T02:07:43;7.20;;;3.90;;
28772;SDS011;15925;51.222;5.678;2023-09-07T02:10:09;6.87;;;3.90;;
28772;SDS011;15925;51.222;5.678;2023-09-07T02:12:35;5.78;;;3.75;;
28772;SDS011;15925;51.222;5.678;2023-09-07T02:15:01;5.13;;;3.20;;
28772;SDS011;15925;51.222;5.678;2023-09-07T02:17:28;7.95;;;3.42;;
28772;SDS011;15925;51.222;5.678;2023-09-07T02:19:55;25.25;;;3.85;;
28772;SDS011;15925;51.222;5.678;2023-09-07T02:22:21;11.43;;;3.17;;
28772;SDS011;15925;51.222;5.678;2023-09-07T02:24:47;3.33;;;2.47;;
28772;SDS011;15925;51.222;5.678;2023-09-07T02:27:13;4.93;;;3.00;;
28772;SDS011;15925;51.222;5.678;2023-09-07T02:29:38;3.17;;;2.20;;
28772;SDS011;15925;51.222;5.678;2023-09-07T02:32:05;4.03;;;2.25;;
28772;SDS011;15925;51.222;5.678;2023-09-07T02:34:30;6.72;;;3.15;;
28772;SDS011;15925;51.222;5.678;2023-09-07T02:36:56;6.82;;;3.42;;
28772;SDS011;15925;51.222;5.678;2023-09-07T02:39:22;7.47;;;2.90;;
28772;SDS011;15925;51.222;5.678;2023-09-07T02:41:52;10.65;;;4.05;;
28772;SDS011;15925;51.222;5.678;2023-09-07T02:44:18;8.55;;;3.90;;
28772;SDS011;15925;51.222;5.678;2023-09-07T02:46:44;6.20;;;3.17;;
28772;SDS011;15925;51.222;5.678;2023-09-07T02:49:09;5.82;;;3.08;;
28772;SDS011;15925;51.222;5.678;2023-09-07T02:51:35;6.50;;;2.63;;
28772;SDS011;15925;51.222;5.678;2023-09-07T02:54:02;4.75;;;2.67;;
28772;SDS011;15925;51.222;5.678;2023-09-07T02:56:30;10.10;;;2.80;;
28772;SDS011;15925;51.222;5.678;2023-09-07T02:58:56;5.07;;;2.20;;
28772;SDS011;15925;51.222;5.678;2023-09-07T03:01:22;2.88;;;2.00;;
28772;SDS011;15925;51.222;5.678;2023-09-07T03:03:49;8.07;;;2.30;;
28772;SDS011;15925;51.222;5.678;2023-09-07T03:08:48;8.30;;;2.90;;
28772;SDS011;15925;51.222;5.678;2023-09-07T03:13:40;5.53;;;2.42;;
28772;SDS011;15925;51.222;5.678;2023-09-07T03:16:07;3.38;;;1.80;;
28772;SDS011;15925;51.222;5.678;2023-09-07T03:18:33;6.68;;;3.17;;
28772;SDS011;15925;51.222;5.678;2023-09-07T03:21:00;6.63;;;3.00;;
28772;SDS011;15925;51.222;5.678;2023-09-07T03:23:27;7.72;;;2.90;;
28772;SDS011;15925;51.222;5.678;2023-09-07T03:25:58;4.63;;;2.22;;
28772;SDS011;15925;51.222;5.678;2023-09-07T03:28:24;6.13;;;2.65;;
28772;SDS011;15925;51.222;5.678;2023-09-07T03:30:51;3.08;;;2.17;;
28772;SDS011;15925;51.222;5.678;2023-09-07T03:35:43;11.52;;;2.45;;
28772;SDS011;15925;51.222;5.678;2023-09-07T03:38:09;5.37;;;2.70;;
28772;SDS011;15925;51.222;5.678;2023-09-07T03:40:35;8.47;;;2.20;;
28772;SDS011;15925;51.222;5.678;2023-09-07T03:43:00;5.65;;;1.90;;
28772;SDS011;15925;51.222;5.678;2023-09-07T03:45:26;4.55;;;2.83;;
28772;SDS011;15925;51.222;5.678;2023-09-07T03:47:52;6.70;;;2.93;;
28772;SDS011;15925;51.222;5.678;2023-09-07T03:52:45;6.43;;;3.28;;
28772;SDS011;15925;51.222;5.678;2023-09-07T03:55:11;9.65;;;4.18;;
28772;SDS011;15925;51.222;5.678;2023-09-07T03:57:38;11.50;;;4.05;;
28772;SDS011;15925;51.222;5.678;2023-09-07T04:00:06;12.35;;;4.45;;
28772;SDS011;15925;51.222;5.678;2023-09-07T04:02:43;6.40;;;3.67;;
28772;SDS011;15925;51.222;5.678;2023-09-07T04:05:08;8.77;;;4.07;;
28772;SDS011;15925;51.222;5.678;2023-09-07T04:07:36;7.60;;;4.07;;
28772;SDS011;15925;51.222;5.678;2023-09-07T04:10:03;13.50;;;3.55;;
28772;SDS011;15925;51.222;5.678;2023-09-07T04:12:29;16.85;;;4.40;;
28772;SDS011;15925;51.222;5.678;2023-09-07T04:17:22;7.15;;;4.10;;
28772;SDS011;15925;51.222;5.678;2023-09-07T04:19:48;19.55;;;4.68;;
28772;SDS011;15925;51.222;5.678;2023-09-07T04:22:13;11.30;;;3.63;;
28772;SDS011;15925;51.222;5.678;2023-09-07T04:24:39;14.02;;;3.55;;
28772;SDS011;15925;51.222;5.678;2023-09-07T04:27:08;14.77;;;4.40;;
28772;SDS011;15925;51.222;5.678;2023-09-07T04:29:33;16.50;;;4.63;;
28772;SDS011;15925;51.222;5.678;2023-09-07T04:31:59;7.77;;;2.70;;
28772;SDS011;15925;51.222;5.678;2023-09-07T04:34:25;8.00;;;3.38;;
28772;SDS011;15925;51.222;5.678;2023-09-07T04:36:53;8.77;;;3.63;;
28772;SDS011;15925;51.222;5.678;2023-09-07T04:39:19;7.40;;;4.13;;
28772;SDS011;15925;51.222;5.678;2023-09-07T04:41:45;11.50;;;4.28;;
28772;SDS011;15925;51.222;5.678;2023-09-07T04:44:10;11.13;;;5.27;;
28772;SDS011;15925;51.222;5.678;2023-09-07T04:46:36;6.25;;;3.13;;
28772;SDS011;15925;51.222;5.678;2023-09-07T04:49:03;3.70;;;2.55;;
28772;SDS011;15925;51.222;5.678;2023-09-07T04:51:29;5.67;;;3.43;;
28772;SDS011;15925;51.222;5.678;2023-09-07T04:53:55;12.70;;;3.60;;
28772;SDS011;15925;51.222;5.678;2023-09-07T04:56:21;9.23;;;3.85;;
28772;SDS011;15925;51.222;5.678;2023-09-07T04:58:47;12.50;;;4.18;;
28772;SDS011;15925;51.222;5.678;2023-09-07T05:01:13;11.68;;;3.67;;
28772;SDS011;15925;51.222;5.678;2023-09-07T05:03:40;6.72;;;3.50;;
28772;SDS011;15925;51.222;5.678;2023-09-07T05:06:07;9.98;;;5.03;;
28772;SDS011;15925;51.222;5.678;2023-09-07T05:08:33;6.00;;;3.08;;
28772;SDS011;15925;51.222;5.678;2023-09-07T05:11:00;9.82;;;4.00;;
28772;SDS011;15925;51.222;5.678;2023-09-07T05:13:28;17.23;;;4.18;;
28772;SDS011;15925;51.222;5.678;2023-09-07T05:15:55;7.50;;;3.67;;
28772;SDS011;15925;51.222;5.678;2023-09-07T05:18:23;5.13;;;3.30;;
28772;SDS011;15925;51.222;5.678;2023-09-07T05:20:49;6.63;;;3.47;;
28772;SDS011;15925;51.222;5.678;2023-09-07T05:23:17;16.02;;;3.65;;
28772;SDS011;15925;51.222;5.678;2023-09-07T05:25:46;7.38;;;3.95;;
28772;SDS011;15925;51.222;5.678;2023-09-07T05:28:13;5.80;;;3.58;;
28772;SDS011;15925;51.222;5.678;2023-09-07T05:30:40;10.52;;;3.20;;
28772;SDS011;15925;51.222;5.678;2023-09-07T05:33:06;8.18;;;3.33;;
28772;SDS011;15925;51.222;5.678;2023-09-07T05:35:33;7.07;;;3.85;;
28772;SDS011;15925;51.222;5.678;2023-09-07T05:38:00;8.55;;;3.35;;
28772;SDS011;15925;51.222;5.678;2023-09-07T05:40:27;18.13;;;4.05;;
28772;SDS011;15925;51.222;5.678;2023-09-07T05:42:53;8.20;;;3.97;;
28772;SDS011;15925;51.222;5.678;2023-09-07T05:45:20;7.28;;;3.80;;
28772;SDS011;15925;51.222;5.678;2023-09-07T05:47:46;5.03;;;2.63;;
28772;SDS011;15925;51.222;5.678;2023-09-07T05:50:12;6.20;;;3.38;;
28772;SDS011;15925;51.222;5.678;2023-09-07T05:52:38;11.38;;;3.17;;
28772;SDS011;15925;51.222;5.678;2023-09-07T05:55:04;8.05;;;3.42;;
28772;SDS011;15925;51.222;5.678;2023-09-07T05:57:31;7.78;;;3.13;;
28772;SDS011;15925;51.222;5.678;2023-09-07T05:59:57;10.53;;;3.93;;
28772;SDS011;15925;51.222;5.678;2023-09-07T06:02:23;11.20;;;4.05;;
28772;SDS011;15925;51.222;5.678;2023-09-07T06:04:49;8.52;;;3.90;;
28772;SDS011;15925;51.222;5.678;2023-09-07T06:07:15;10.05;;;3.60;;
28772;SDS011;15925;51.222;5.678;2023-09-07T06:09:41;29.00;;;4.60;;
28772;SDS011;15925;51.222;5.678;2023-09-07T06:12:07;6.30;;;3.40;;
28772;SDS011;15925;51.222;5.678;2023-09-07T06:14:33;9.10;;;4.03;;
28772;SDS011;15925;51.222;5.678;2023-09-07T06:16:59;9.20;;;4.07;;
28772;SDS011;15925;51.222;5.678;2023-09-07T06:19:25;7.53;;;3.60;;
28772;SDS011;15925;51.222;5.678;2023-09-07T06:21:50;6.37;;;3.90;;
28772;SDS011;15925;51.222;5.678;2023-09-07T06:24:16;12.80;;;4.43;;
28772;SDS011;15925;51.222;5.678;2023-09-07T06:26:42;13.67;;;3.93;;
28772;SDS011;15925;51.222;5.678;2023-09-07T06:29:09;8.38;;;4.07;;
28772;SDS011;15925;51.222;5.678;2023-09-07T06:31:35;10.52;;;3.97;;
28772;SDS011;15925;51.222;5.678;2023-09-07T06:34:01;9.40;;;4.20;;
28772;SDS011;15925;51.222;5.678;2023-09-07T06:36:29;14.43;;;4.18;;
28772;SDS011;15925;51.222;5.678;2023-09-07T06:38:55;7.68;;;4.45;;
28772;SDS011;15925;51.222;5.678;2023-09-07T06:41:21;8.70;;;3.85;;
28772;SDS011;15925;51.222;5.678;2023-09-07T06:43:47;6.70;;;3.47;;
28772;SDS011;15925;51.222;5.678;2023-09-07T06:46:13;6.32;;;3.25;;
28772;SDS011;15925;51.222;5.678;2023-09-07T06:48:39;14.77;;;4.13;;
28772;SDS011;15925;51.222;5.678;2023-09-07T06:51:05;11.65;;;4.32;;
28772;SDS011;15925;51.222;5.678;2023-09-07T06:53:32;9.95;;;4.88;;
28772;SDS011;15925;51.222;5.678;2023-09-07T06:55:59;8.20;;;4.93;;
28772;SDS011;15925;51.222;5.678;2023-09-07T06:58:26;7.72;;;4.50;;
28772;SDS011;15925;51.222;5.678;2023-09-07T07:01:00;17.25;;;4.32;;
28772;SDS011;15925;51.222;5.678;2023-09-07T07:03:28;11.40;;;4.80;;
28772;SDS011;15925;51.222;5.678;2023-09-07T07:05:55;7.00;;;3.65;;
28772;SDS011;15925;51.222;5.678;2023-09-07T07:08:21;9.15;;;5.25;;
28772;SDS011;15925;51.222;5.678;2023-09-07T07:13:14;10.25;;;4.68;;
28772;SDS011;15925;51.222;5.678;2023-09-07T07:15:41;9.60;;;4.35;;
28772;SDS011;15925;51.222;5.678;2023-09-07T07:18:07;7.65;;;4.07;;
28772;SDS011;15925;51.222;5.678;2023-09-07T07:20:38;11.27;;;4.90;;
28772;SDS011;15925;51.222;5.678;2023-09-07T07:23:04;10.77;;;4.90;;
28772;SDS011;15925;51.222;5.678;2023-09-07T07:25:34;18.17;;;4.82;;
28772;SDS011;15925;51.222;5.678;2023-09-07T07:28:01;14.00;;;4.22;;
28772;SDS011;15925;51.222;5.678;2023-09-07T07:30:36;10.70;;;5.05;;
28772;SDS011;15925;51.222;5.678;2023-09-07T07:33:03;6.05;;;3.67;;
28772;SDS011;15925;51.222;5.678;2023-09-07T07:35:31;11.25;;;5.10;;
28772;SDS011;15925;51.222;5.678;2023-09-07T07:37:58;9.60;;;4.15;;
28772;SDS011;15925;51.222;5.678;2023-09-07T07:40:24;11.95;;;4.35;;
28772;SDS011;15925;51.222;5.678;2023-09-07T07:42:51;15.75;;;4.18;;
28772;SDS011;15925;51.222;5.678;2023-09-07T07:45:19;8.60;;;3.67;;
28772;SDS011;15925;51.222;5.678;2023-09-07T07:47:46;11.00;;;4.65;;
28772;SDS011;15925;51.222;5.678;2023-09-07T07:50:12;9.63;;;4.65;;
28772;SDS011;15925;51.222;5.678;2023-09-07T07:52:38;10.32;;;3.70;;
28772;SDS011;15925;51.222;5.678;2023-09-07T07:55:04;21.75;;;4.53;;
28772;SDS011;15925;51.222;5.678;2023-09-07T07:57:31;8.43;;;3.75;;
28772;SDS011;15925;51.222;5.678;2023-09-07T07:59:57;13.73;;;4.13;;
28772;SDS011;15925;51.222;5.678;2023-09-07T08:02:25;8.90;;;4.28;;
28772;SDS011;15925;51.222;5.678;2023-09-07T08:04:51;15.63;;;5.03;;
28772;SDS011;15925;51.222;5.678;2023-09-07T08:07:17;8.27;;;3.97;;
28772;SDS011;15925;51.222;5.678;2023-09-07T08:09:43;7.32;;;4.03;;
28772;SDS011;15925;51.222;5.678;2023-09-07T08:14:36;6.30;;;2.88;;
28772;SDS011;15925;51.222;5.678;2023-09-07T08:17:03;18.55;;;3.00;;
28772;SDS011;15925;51.222;5.678;2023-09-07T08:19:29;3.42;;;2.25;;
28772;SDS011;15925;51.222;5.678;2023-09-07T08:21:57;8.40;;;3.13;;
28772;SDS011;15925;51.222;5.678;2023-09-07T08:24:23;5.38;;;3.15;;
28772;SDS011;15925;51.222;5.678;2023-09-07T08:26:49;3.55;;;1.77;;
28772;SDS011;15925;51.222;5.678;2023-09-07T08:31:42;7.57;;;2.00;;
28772;SDS011;15925;51.222;5.678;2023-09-07T08:34:10;5.57;;;2.20;;
28772;SDS011;15925;51.222;5.678;2023-09-07T08:36:36;10.55;;;3.22;;
28772;SDS011;15925;51.222;5.678;2023-09-07T08:39:06;5.60;;;2.35;;
28772;SDS011;15925;51.222;5.678;2023-09-07T08:41:38;13.23;;;3.08;;
28772;SDS011;15925;51.222;5.678;2023-09-07T08:44:09;4.45;;;2.33;;
28772;SDS011;15925;51.222;5.678;2023-09-07T08:46:39;20.30;;;3.42;;
28772;SDS011;15925;51.222;5.678;2023-09-07T08:49:06;7.78;;;3.17;;
28772;SDS011;15925;51.222;5.678;2023-09-07T08:51:34;7.93;;;2.78;;
28772;SDS011;15925;51.222;5.678;2023-09-07T08:54:02;3.58;;;2.03;;
28772;SDS011;15925;51.222;5.678;2023-09-07T08:58:55;7.07;;;2.50;;
28772;SDS011;15925;51.222;5.678;2023-09-07T09:01:21;8.02;;;2.95;;
28772;SDS011;15925;51.222;5.678;2023-09-07T09:03:47;5.70;;;1.98;;
28772;SDS011;15925;51.222;5.678;2023-09-07T09:06:14;3.85;;;1.75;;
28772;SDS011;15925;51.222;5.678;2023-09-07T09:08:44;12.73;;;2.10;;
28772;SDS011;15925;51.222;5.678;2023-09-07T09:11:14;5.68;;;2.22;;
28772;SDS011;15925;51.222;5.678;2023-09-07T09:13:41;6.82;;;1.95;;
28772;SDS011;15925;51.222;5.678;2023-09-07T09:16:07;7.22;;;2.25;;
28772;SDS011;15925;51.222;5.678;2023-09-07T09:20:59;3.17;;;2.38;;
28772;SDS011;15925;51.222;5.678;2023-09-07T09:26:01;2.15;;;1.48;;
28772;SDS011;15925;51.222;5.678;2023-09-07T09:28:30;5.82;;;1.85;;
28772;SDS011;15925;51.222;5.678;2023-09-07T09:31:00;9.02;;;2.13;;
28772;SDS011;15925;51.222;5.678;2023-09-07T09:33:29;3.45;;;1.67;;
28772;SDS011;15925;51.222;5.678;2023-09-07T09:35:58;3.22;;;1.73;;
28772;SDS011;15925;51.222;5.678;2023-09-07T09:38:24;6.72;;;1.77;;
28772;SDS011;15925;51.222;5.678;2023-09-07T09:40:51;3.78;;;1.65;;
28772;SDS011;15925;51.222;5.678;2023-09-07T09:43:19;6.03;;;2.30;;
28772;SDS011;15925;51.222;5.678;2023-09-07T09:45:46;5.75;;;1.90;;
28772;SDS011;15925;51.222;5.678;2023-09-07T09:48:15;2.78;;;1.92;;
28772;SDS011;15925;51.222;5.678;2023-09-07T09:50:43;5.82;;;2.17;;
28772;SDS011;15925;51.222;5.678;2023-09-07T09:53:11;3.83;;;1.75;;
28772;SDS011;15925;51.222;5.678;2023-09-07T09:55:42;4.70;;;2.13;;
28772;SDS011;15925;51.222;5.678;2023-09-07T09:58:08;3.00;;;1.73;;
28772;SDS011;15925;51.222;5.678;2023-09-07T10:00:34;3.95;;;2.00;;
28772;SDS011;15925;51.222;5.678;2023-09-07T10:03:07;19.73;;;2.13;;
28772;SDS011;15925;51.222;5.678;2023-09-07T10:05:53;4.50;;;1.70;;
28772;SDS011;15925;51.222;5.678;2023-09-07T10:08:20;3.20;;;1.65;;
28772;SDS011;15925;51.222;5.678;2023-09-07T10:10:48;5.45;;;1.67;;
28772;SDS011;15925;51.222;5.678;2023-09-07T10:13:28;3.03;;;1.65;;
28772;SDS011;15925;51.222;5.678;2023-09-07T10:16:05;13.00;;;1.95;;
28772;SDS011;15925;51.222;5.678;2023-09-07T10:21:00;9.50;;;2.10;;
28772;SDS011;15925;51.222;5.678;2023-09-07T10:23:43;2.38;;;1.67;;
28772;SDS011;15925;51.222;5.678;2023-09-07T10:26:15;3.03;;;1.60;;
28772;SDS011;15925;51.222;5.678;2023-09-07T10:28:42;4.28;;;2.28;;
28772;SDS011;15925;51.222;5.678;2023-09-07T10:33:45;7.50;;;1.80;;
28772;SDS011;15925;51.222;5.678;2023-09-07T10:36:22;11.80;;;1.60;;
28772;SDS011;15925;51.222;5.678;2023-09-07T10:38:51;5.13;;;2.08;;
28772;SDS011;15925;51.222;5.678;2023-09-07T10:41:19;12.98;;;1.90;;
28772;SDS011;15925;51.222;5.678;2023-09-07T10:46:18;2.97;;;1.30;;
28772;SDS011;15925;51.222;5.678;2023-09-07T10:48:45;8.75;;;2.25;;
28772;SDS011;15925;51.222;5.678;2023-09-07T10:51:13;3.08;;;1.52;;
28772;SDS011;15925;51.222;5.678;2023-09-07T10:53:39;4.75;;;1.67;;
28772;SDS011;15925;51.222;5.678;2023-09-07T10:56:06;2.28;;;1.42;;
28772;SDS011;15925;51.222;5.678;2023-09-07T10:58:33;3.63;;;2.40;;
28772;SDS011;15925;51.222;5.678;2023-09-07T11:01:01;9.88;;;2.00;;
28772;SDS011;15925;51.222;5.678;2023-09-07T11:03:30;2.38;;;1.70;;
28772;SDS011;15925;51.222;5.678;2023-09-07T11:08:27;3.83;;;1.60;;
28772;SDS011;15925;51.222;5.678;2023-09-07T11:10:54;2.83;;;1.58;;
28772;SDS011;15925;51.222;5.678;2023-09-07T11:13:21;2.95;;;1.65;;
28772;SDS011;15925;51.222;5.678;2023-09-07T11:15:52;2.25;;;1.27;;
28772;SDS011;15925;51.222;5.678;2023-09-07T11:18:23;3.42;;;1.77;;
28772;SDS011;15925;51.222;5.678;2023-09-07T11:20:50;6.05;;;2.08;;
28772;SDS011;15925;51.222;5.678;2023-09-07T11:23:17;2.65;;;1.65;;
28772;SDS011;15925;51.222;5.678;2023-09-07T11:25:43;8.05;;;1.63;;
28772;SDS011;15925;51.222;5.678;2023-09-07T11:28:09;2.45;;;1.63;;
28772;SDS011;15925;51.222;5.678;2023-09-07T11:30:48;10.27;;;2.33;;
28772;SDS011;15925;51.222;5.678;2023-09-07T11:33:18;4.72;;;1.20;;
28772;SDS011;15925;51.222;5.678;2023-09-07T11:35:44;3.47;;;1.92;;
28772;SDS011;15925;51.222;5.678;2023-09-07T11:38:12;2.15;;;1.52;;
28772;SDS011;15925;51.222;5.678;2023-09-07T11:40:39;3.47;;;1.33;;
28772;SDS011;15925;51.222;5.678;2023-09-07T11:43:08;4.30;;;2.03;;
28772;SDS011;15925;51.222;5.678;2023-09-07T11:45:33;7.80;;;1.60;;
28772;SDS011;15925;51.222;5.678;2023-09-07T11:47:59;2.75;;;1.42;;
28772;SDS011;15925;51.222;5.678;2023-09-07T11:50:25;6.63;;;2.22;;
28772;SDS011;15925;51.222;5.678;2023-09-07T11:52:55;2.70;;;1.67;;
28772;SDS011;15925;51.222;5.678;2023-09-07T11:55:24;2.80;;;1.60;;
28772;SDS011;15925;51.222;5.678;2023-09-07T11:57:50;2.05;;;1.40;;
28772;SDS011;15925;51.222;5.678;2023-09-07T12:00:17;6.07;;;2.53;;
28772;SDS011;15925;51.222;5.678;2023-09-07T12:05:09;4.53;;;2.00;;
28772;SDS011;15925;51.222;5.678;2023-09-07T12:07:38;2.30;;;1.65;;
28772;SDS011;15925;51.222;5.678;2023-09-07T12:10:04;3.50;;;1.63;;
28772;SDS011;15925;51.222;5.678;2023-09-07T12:12:30;2.85;;;1.60;;
28772;SDS011;15925;51.222;5.678;2023-09-07T12:14:56;2.97;;;1.70;;
28772;SDS011;15925;51.222;5.678;2023-09-07T12:17:22;2.42;;;1.55;;
28772;SDS011;15925;51.222;5.678;2023-09-07T12:19:49;2.97;;;1.83;;
28772;SDS011;15925;51.222;5.678;2023-09-07T12:22:15;9.25;;;1.88;;
28772;SDS011;15925;51.222;5.678;2023-09-07T12:24:41;5.40;;;1.80;;
28772;SDS011;15925;51.222;5.678;2023-09-07T12:27:07;2.22;;;1.77;;
28772;SDS011;15925;51.222;5.678;2023-09-07T12:29:33;3.30;;;1.80;;
28772;SDS011;15925;51.222;5.678;2023-09-07T12:31:58;2.80;;;1.35;;
28772;SDS011;15925;51.222;5.678;2023-09-07T12:34:24;6.38;;;1.85;;
28772;SDS011;15925;51.222;5.678;2023-09-07T12:36:50;1.98;;;1.52;;
28772;SDS011;15925;51.222;5.678;2023-09-07T12:39:16;2.40;;;1.60;;
28772;SDS011;15925;51.222;5.678;2023-09-07T12:44:08;9.75;;;1.73;;
28772;SDS011;15925;51.222;5.678;2023-09-07T12:46:34;3.30;;;1.60;;
28772;SDS011;15925;51.222;5.678;2023-09-07T12:49:02;14.15;;;2.05;;
28772;SDS011;15925;51.222;5.678;2023-09-07T12:51:28;5.10;;;2.08;;
28772;SDS011;15925;51.222;5.678;2023-09-07T12:53:54;3.97;;;1.50;;
28772;SDS011;15925;51.222;5.678;2023-09-07T12:56:19;2.05;;;1.38;;
28772;SDS011;15925;51.222;5.678;2023-09-07T12:58:45;2.10;;;1.40;;
28772;SDS011;15925;51.222;5.678;2023-09-07T13:01:11;11.80;;;1.75;;
28772;SDS011;15925;51.222;5.678;2023-09-07T13:03:40;1.42;;;1.27;;
28772;SDS011;15925;51.222;5.678;2023-09-07T13:06:06;3.55;;;1.58;;
28772;SDS011;15925;51.222;5.678;2023-09-07T13:08:32;2.22;;;1.35;;
28772;SDS011;15925;51.222;5.678;2023-09-07T13:13:24;2.47;;;1.45;;
28772;SDS011;15925;51.222;5.678;2023-09-07T13:15:54;3.85;;;1.40;;
28772;SDS011;15925;51.222;5.678;2023-09-07T13:18:20;3.05;;;1.95;;
28772;SDS011;15925;51.222;5.678;2023-09-07T13:20:46;17.80;;;1.58;;
28772;SDS011;15925;51.222;5.678;2023-09-07T13:23:15;10.02;;;1.58;;
28772;SDS011;15925;51.222;5.678;2023-09-07T13:25:41;12.32;;;1.70;;
28772;SDS011;15925;51.222;5.678;2023-09-07T13:28:07;2.60;;;1.98;;
28772;SDS011;15925;51.222;5.678;2023-09-07T13:30:33;4.55;;;1.60;;
28772;SDS011;15925;51.222;5.678;2023-09-07T13:32:59;3.03;;;2.00;;
28772;SDS011;15925;51.222;5.678;2023-09-07T13:35:25;6.70;;;1.73;;
28772;SDS011;15925;51.222;5.678;2023-09-07T13:37:51;2.17;;;1.40;;
28772;SDS011;15925;51.222;5.678;2023-09-07T13:40:17;3.20;;;1.60;;
28772;SDS011;15925;51.222;5.678;2023-09-07T13:42:45;3.17;;;1.58;;
28772;SDS011;15925;51.222;5.678;2023-09-07T13:45:13;3.10;;;1.33;;
28772;SDS011;15925;51.222;5.678;2023-09-07T13:47:38;3.53;;;1.27;;
28772;SDS011;15925;51.222;5.678;2023-09-07T13:50:04;2.00;;;1.17;;
28772;SDS011;15925;51.222;5.678;2023-09-07T13:52:31;2.05;;;1.75;;
28772;SDS011;15925;51.222;5.678;2023-09-07T13:54:56;3.75;;;1.40;;
28772;SDS011;15925;51.222;5.678;2023-09-07T13:57:22;1.65;;;1.08;;
28772;SDS011;15925;51.222;5.678;2023-09-07T13:59:48;3.85;;;1.42;;
28772;SDS011;15925;51.222;5.678;2023-09-07T14:02:14;3.35;;;1.50;;
28772;SDS011;15925;51.222;5.678;2023-09-07T14:04:40;5.97;;;2.30;;
28772;SDS011;15925;51.222;5.678;2023-09-07T14:07:06;4.45;;;1.90;;
28772;SDS011;15925;51.222;5.678;2023-09-07T14:09:32;2.42;;;1.40;;
28772;SDS011;15925;51.222;5.678;2023-09-07T14:11:58;3.78;;;1.60;;
28772;SDS011;15925;51.222;5.678;2023-09-07T14:14:24;2.35;;;1.10;;
28772;SDS011;15925;51.222;5.678;2023-09-07T14:16:50;8.00;;;2.28;;
28772;SDS011;15925;51.222;5.678;2023-09-07T14:19:21;5.25;;;1.45;;
28772;SDS011;15925;51.222;5.678;2023-09-07T14:21:47;2.88;;;1.95;;
28772;SDS011;15925;51.222;5.678;2023-09-07T14:24:13;2.63;;;1.38;;
28772;SDS011;15925;51.222;5.678;2023-09-07T14:26:39;1.83;;;1.60;;
28772;SDS011;15925;51.222;5.678;2023-09-07T14:29:05;4.20;;;1.75;;
28772;SDS011;15925;51.222;5.678;2023-09-07T14:31:30;3.50;;;1.67;;
28772;SDS011;15925;51.222;5.678;2023-09-07T14:33:56;5.70;;;2.15;;
28772;SDS011;15925;51.222;5.678;2023-09-07T14:36:22;3.88;;;1.90;;
28772;SDS011;15925;51.222;5.678;2023-09-07T14:38:48;3.05;;;1.63;;
28772;SDS011;15925;51.222;5.678;2023-09-07T14:41:14;6.38;;;2.00;;
28772;SDS011;15925;51.222;5.678;2023-09-07T14:43:47;2.38;;;1.65;;
28772;SDS011;15925;51.222;5.678;2023-09-07T14:46:13;4.53;;;1.90;;
28772;SDS011;15925;51.222;5.678;2023-09-07T14:48:40;2.17;;;1.52;;
28772;SDS011;15925;51.222;5.678;2023-09-07T14:51:06;6.78;;;2.60;;
28772;SDS011;15925;51.222;5.678;2023-09-07T14:53:32;2.97;;;1.30;;
28772;SDS011;15925;51.222;5.678;2023-09-07T14:55:58;9.73;;;2.22;;
28772;SDS011;15925;51.222;5.678;2023-09-07T14:58:23;5.68;;;1.60;;
28772;SDS011;15925;51.222;5.678;2023-09-07T15:00:49;3.25;;;1.90;;
28772;SDS011;15925;51.222;5.678;2023-09-07T15:03:15;3.45;;;2.08;;
28772;SDS011;15925;51.222;5.678;2023-09-07T15:05:41;3.00;;;1.48;;
28772;SDS011;15925;51.222;5.678;2023-09-07T15:10:33;1.90;;;1.52;;
28772;SDS011;15925;51.222;5.678;2023-09-07T15:12:59;5.80;;;2.28;;
28772;SDS011;15925;51.222;5.678;2023-09-07T15:15:28;4.30;;;1.60;;
28772;SDS011;15925;51.222;5.678;2023-09-07T15:17:58;4.95;;;1.88;;
28772;SDS011;15925;51.222;5.678;2023-09-07T15:20:24;2.85;;;1.75;;
28772;SDS011;15925;51.222;5.678;2023-09-07T15:22:50;12.13;;;1.73;;
28772;SDS011;15925;51.222;5.678;2023-09-07T15:25:16;6.53;;;1.77;;
28772;SDS011;15925;51.222;5.678;2023-09-07T15:27:45;4.85;;;1.85;;
28772;SDS011;15925;51.222;5.678;2023-09-07T15:30:11;10.95;;;2.15;;
28772;SDS011;15925;51.222;5.678;2023-09-07T15:32:38;3.78;;;1.67;;
28772;SDS011;15925;51.222;5.678;2023-09-07T15:35:05;7.38;;;1.80;;
28772;SDS011;15925;51.222;5.678;2023-09-07T15:37:32;3.50;;;1.40;;